createdAt,value
2022-12-28T00:02:13.923Z,101169.00
2022-12-28T00:04:44.428Z,101175.00
2022-12-28T00:07:11.708Z,101167.84
2022-12-28T00:09:40.886Z,101169.53
2022-12-28T00:12:08.353Z,101165.91
2022-12-28T00:14:35.577Z,101158.00
2022-12-28T00:17:02.758Z,101159.22
2022-12-28T00:19:30.231Z,101163.19
2022-12-28T00:21:57.692Z,101155.91
2022-12-28T00:24:26.221Z,101144.63
2022-12-28T00:26:56.684Z,101141.13
2022-12-28T00:29:24.362Z,101141.59
2022-12-28T00:31:51.876Z,101152.91
2022-12-28T00:34:19.452Z,101150.00
2022-12-28T00:37:11.701Z,101153.19
2022-12-28T00:39:37.919Z,101156.56
2022-12-28T00:42:06.057Z,101158.09
2022-12-28T00:44:33.385Z,101160.22
2022-12-28T00:47:00.738Z,101161.16
2022-12-28T00:49:28.146Z,101160.09
2022-12-28T00:51:55.435Z,101161.75
2022-12-28T00:54:23.251Z,101152.03
2022-12-28T00:56:52.659Z,101158.56
2022-12-28T00:59:19.850Z,101152.78
2022-12-28T01:01:47.110Z,101150.78
2022-12-28T01:04:14.692Z,101153.22
2022-12-28T01:06:42.030Z,101154.78
2022-12-28T01:09:09.288Z,101155.22
2022-12-28T01:11:36.555Z,101165.72
2022-12-28T01:14:03.963Z,101158.13
2022-12-28T01:16:39.325Z,101157.53
2022-12-28T01:19:09.928Z,101166.06
2022-12-28T01:21:37.245Z,101162.53
2022-12-28T01:24:08.561Z,101157.81
2022-12-28T01:26:36.542Z,101146.72
2022-12-28T01:29:03.964Z,101152.34
2022-12-28T01:31:33.414Z,101148.53
2022-12-28T01:34:02.035Z,101140.34
2022-12-28T01:36:33.003Z,101136.06
2022-12-28T01:39:04.291Z,101138.03
2022-12-28T01:41:37.655Z,101143.34
2022-12-28T01:44:04.737Z,101151.13
2022-12-28T01:46:42.933Z,101156.28
2022-12-28T01:49:40.793Z,101150.50
2022-12-28T01:52:39.702Z,101145.34
2022-12-28T01:55:12.762Z,101155.97
2022-12-28T01:57:50.138Z,101170.25
2022-12-28T02:00:18.560Z,101176.34
2022-12-28T02:03:05.286Z,101171.47
2022-12-28T02:05:41.667Z,101175.25
2022-12-28T02:08:46.808Z,101166.44
2022-12-28T02:11:18.507Z,101172.94
2022-12-28T02:13:50.662Z,101170.78
2022-12-28T02:16:19.265Z,101167.69
2022-12-28T02:18:48.310Z,101165.53
2022-12-28T02:21:43.721Z,101161.19
2022-12-28T02:24:41.683Z,101151.25
2022-12-28T02:27:24.621Z,101141.84
2022-12-28T02:30:12.832Z,101154.28
2022-12-28T02:33:07.961Z,101156.72
2022-12-28T02:36:18.125Z,101153.66
2022-12-28T02:39:08.559Z,101148.00
2022-12-28T02:41:40.174Z,101154.53
2022-12-28T02:44:08.059Z,101151.59
2022-12-28T02:46:54.215Z,101142.28
2022-12-28T02:49:45.742Z,101141.66
2022-12-28T02:53:12.794Z,101133.44
2022-12-28T02:56:08.183Z,101134.75
2022-12-28T02:59:19.148Z,101125.75
2022-12-28T03:02:20.772Z,101126.03
2022-12-28T03:05:19.031Z,101113.22
2022-12-28T03:08:20.491Z,101124.78
2022-12-28T03:11:19.256Z,101119.31
2022-12-28T03:14:09.368Z,101122.06
2022-12-28T03:17:04.142Z,101112.75
2022-12-28T03:20:04.474Z,101108.34
2022-12-28T03:22:55.639Z,101102.09
2022-12-28T03:25:49.794Z,101103.03
2022-12-28T03:28:46.065Z,101096.91
2022-12-28T03:31:19.737Z,101091.81
2022-12-28T03:34:06.716Z,101096.56
2022-12-28T03:37:29.142Z,101079.16
2022-12-28T03:40:40.968Z,101077.66
2022-12-28T03:43:35.212Z,101064.13
2022-12-28T03:46:23.344Z,101068.66
2022-12-28T03:48:53.060Z,101069.31
2022-12-28T03:51:24.278Z,101069.31
2022-12-28T03:53:52.755Z,101080.03
2022-12-28T03:56:28.224Z,101068.19
2022-12-28T03:58:59.411Z,101075.16
2022-12-28T04:01:34.876Z,101082.66
2022-12-28T04:04:02.314Z,101083.44
2022-12-28T04:06:29.536Z,101090.72
2022-12-28T04:08:57.556Z,101092.28
2022-12-28T04:11:28.204Z,101085.53
2022-12-28T04:13:56.988Z,101083.50
2022-12-28T04:16:26.864Z,101088.22
2022-12-28T04:18:54.562Z,101090.81
2022-12-28T04:21:22.039Z,101084.22
2022-12-28T04:23:49.261Z,101086.09
2022-12-28T04:26:26.111Z,101090.09
2022-12-28T04:28:57.940Z,101089.19
2022-12-28T04:31:25.286Z,101095.06
2022-12-28T04:34:05.323Z,101095.38
2022-12-28T04:36:35.912Z,101086.78
2022-12-28T04:39:06.971Z,101099.38
2022-12-28T04:41:34.133Z,101106.38
2022-12-28T04:44:01.795Z,101108.34
2022-12-28T04:46:29.204Z,101106.59
2022-12-28T04:48:56.420Z,101104.16
2022-12-28T04:51:27.452Z,101110.09
2022-12-28T04:53:56.917Z,101100.91
2022-12-28T04:56:26.358Z,101115.22
2022-12-28T04:59:00.851Z,101111.06
2022-12-28T05:01:28.701Z,101111.34
2022-12-28T05:03:59.874Z,101119.25
2022-12-28T05:06:27.997Z,101123.56
2022-12-28T05:08:57.582Z,101116.19
2022-12-28T05:11:28.913Z,101118.44
2022-12-28T05:13:57.005Z,101118.19
2022-12-28T05:16:27.981Z,101109.56
2022-12-28T05:18:57.542Z,101116.22
2022-12-28T05:21:29.149Z,101113.13
2022-12-28T05:23:57.528Z,101108.72
2022-12-28T05:26:29.068Z,101108.59
2022-12-28T05:28:58.524Z,101103.81
2022-12-28T05:31:26.458Z,101103.03
2022-12-28T05:33:54.727Z,101101.22
2022-12-28T05:36:26.129Z,101094.84
2022-12-28T05:38:55.198Z,101102.47
2022-12-28T05:41:27.856Z,101104.66
2022-12-28T05:43:57.597Z,101111.03
2022-12-28T05:46:30.939Z,101113.91
2022-12-28T05:48:59.265Z,101105.06
2022-12-28T05:51:32.536Z,101113.41
2022-12-28T05:54:04.390Z,101117.41
2022-12-28T05:56:32.560Z,101114.19
2022-12-28T05:59:04.553Z,101114.38
2022-12-28T06:01:39.750Z,101120.50
2022-12-28T06:04:16.390Z,101119.84
2022-12-28T06:06:45.364Z,101116.22
2022-12-28T06:09:14.083Z,101112.31
2022-12-28T06:11:41.950Z,101120.88
2022-12-28T06:14:09.399Z,101115.97
2022-12-28T06:16:42.134Z,101115.81
2022-12-28T06:19:14.563Z,101111.38
2022-12-28T06:21:42.457Z,101108.66
2022-12-28T06:24:11.542Z,101108.94
2022-12-28T06:26:40.883Z,101104.00
2022-12-28T06:29:08.420Z,101109.47
2022-12-28T06:31:40.668Z,101107.28
2022-12-28T06:34:10.764Z,101115.72
2022-12-28T06:36:45.262Z,101117.25
2022-12-28T06:39:14.478Z,101105.84
2022-12-28T06:41:42.889Z,101102.47
2022-12-28T06:44:13.587Z,101100.66
2022-12-28T06:46:41.156Z,101109.19
2022-12-28T06:49:08.592Z,101100.94
2022-12-28T06:51:40.566Z,101098.22
2022-12-28T06:54:09.311Z,101107.94
2022-12-28T06:56:37.498Z,101101.28
2022-12-28T06:59:05.847Z,101103.13
2022-12-28T07:01:40.890Z,101103.13
2022-12-28T07:04:10.497Z,101111.03
2022-12-28T07:06:42.832Z,101106.41
2022-12-28T07:09:16.383Z,101102.63
2022-12-28T07:11:50.377Z,101099.75
2022-12-28T07:14:18.906Z,101099.75
2022-12-28T07:16:47.665Z,101100.94
2022-12-28T07:19:14.915Z,101108.34
2022-12-28T07:21:42.368Z,101108.75
2022-12-28T07:24:09.861Z,101104.91
2022-12-28T07:26:38.098Z,101105.03
2022-12-28T07:29:08.433Z,101111.38
2022-12-28T07:31:44.729Z,101106.34
2022-12-28T07:34:15.895Z,101104.66
2022-12-28T07:36:43.710Z,101105.06
2022-12-28T07:39:11.002Z,101102.09
2022-12-28T07:41:38.540Z,101106.00
2022-12-28T07:44:06.971Z,101106.56
2022-12-28T07:46:37.794Z,101101.91
2022-12-28T07:49:05.612Z,101105.03
2022-12-28T07:51:38.973Z,101106.44
2022-12-28T07:54:07.089Z,101099.84
2022-12-28T07:59:05.571Z,101106.34
2022-12-28T08:01:36.991Z,101102.72
2022-12-28T08:04:09.634Z,101112.09
2022-12-28T08:06:41.787Z,101110.28
2022-12-28T08:09:12.674Z,101111.69
2022-12-28T08:11:44.532Z,101109.22
2022-12-28T08:14:12.849Z,101116.66
2022-12-28T08:16:43.944Z,101113.41
2022-12-28T08:19:12.117Z,101120.28
2022-12-28T08:21:44.850Z,101113.66
2022-12-28T08:24:19.435Z,101121.63
2022-12-28T08:26:48.734Z,101124.63
2022-12-28T08:29:21.709Z,101121.47
2022-12-28T08:31:49.917Z,101120.47
2022-12-28T08:34:26.340Z,101119.94
2022-12-28T08:36:57.213Z,101128.00
2022-12-28T08:39:24.606Z,101123.84
2022-12-28T08:41:51.867Z,101120.06
2022-12-28T08:44:19.241Z,101133.06
2022-12-28T08:46:46.595Z,101139.72
2022-12-28T08:49:14.192Z,101136.72
2022-12-28T08:51:42.674Z,101128.41
2022-12-28T08:54:13.547Z,101136.44
2022-12-28T08:56:44.032Z,101143.72
2022-12-28T08:59:18.435Z,101142.19
2022-12-28T09:01:47.309Z,101139.84
2022-12-28T09:04:22.112Z,101135.28
2022-12-28T09:06:50.359Z,101144.75
2022-12-28T09:09:19.892Z,101147.75
2022-12-28T09:11:48.553Z,101151.91
2022-12-28T09:14:23.114Z,101151.66
2022-12-28T09:16:54.553Z,101150.63
2022-12-28T09:19:23.198Z,101152.44
2022-12-28T09:21:53.189Z,101150.88
2022-12-28T09:24:21.771Z,101154.75
2022-12-28T09:26:50.889Z,101155.53
2022-12-28T09:29:18.122Z,101158.53
2022-12-28T09:32:35.130Z,101151.66
2022-12-28T09:35:02.426Z,101158.13
2022-12-28T09:37:29.748Z,101163.06
2022-12-28T09:40:01.346Z,101150.41
2022-12-28T09:43:35.752Z,101160.44
2022-12-28T09:46:03.415Z,101159.41
2022-12-28T09:48:31.093Z,101151.03
2022-12-28T09:50:58.437Z,101153.66
2022-12-28T09:53:30.837Z,101152.59
2022-12-28T09:56:24.859Z,101150.72
2022-12-28T09:58:53.427Z,101151.69
2022-12-28T10:01:22.410Z,101150.38
2022-12-28T10:03:49.993Z,101147.78
2022-12-28T10:06:25.748Z,101144.09
2022-12-28T10:09:04.819Z,101135.00
2022-12-28T10:11:41.690Z,101140.53
2022-12-28T10:14:42.808Z,101131.19
2022-12-28T10:17:15.102Z,101132.09
2022-12-28T10:19:46.571Z,101124.06
2022-12-28T10:22:19.798Z,101123.00
2022-12-28T10:24:48.247Z,101115.38
2022-12-28T10:27:31.750Z,101119.28
2022-12-28T10:30:02.596Z,101117.56
2022-12-28T10:33:02.490Z,101117.44
2022-12-28T10:35:50.117Z,101111.22
2022-12-28T10:38:32.141Z,101114.34
2022-12-28T10:41:09.701Z,101104.72
2022-12-28T10:43:41.905Z,101103.16
2022-12-28T10:46:22.612Z,101102.25
2022-12-28T10:49:00.186Z,101099.75
2022-12-28T10:51:29.762Z,101100.25
2022-12-28T10:53:58.350Z,101090.97
2022-12-28T10:56:45.073Z,101090.53
2022-12-28T10:59:12.646Z,101095.38
2022-12-28T11:01:42.957Z,101084.28
2022-12-28T11:04:20.820Z,101073.91
2022-12-28T11:07:00.124Z,101074.16
2022-12-28T11:09:35.700Z,101067.63
2022-12-28T11:12:28.969Z,101065.34
2022-12-28T11:14:56.253Z,101070.69
2022-12-28T11:17:29.194Z,101069.88
2022-12-28T11:20:18.947Z,101066.28
2022-12-28T11:22:47.509Z,101073.06
2022-12-28T11:25:31.172Z,101062.41
2022-12-28T11:27:59.479Z,101061.16
2022-12-28T11:30:26.947Z,101057.41
2022-12-28T11:33:02.265Z,101059.13
2022-12-28T11:35:36.992Z,101069.09
2022-12-28T11:38:12.229Z,101058.91
2022-12-28T11:40:45.403Z,101068.78
2022-12-28T11:43:30.643Z,101060.03
2022-12-28T11:46:27.932Z,101054.00
2022-12-28T11:48:54.912Z,101050.28
2022-12-28T11:51:36.275Z,101037.63
2022-12-28T11:54:42.572Z,101036.31
2022-12-28T11:57:11.156Z,101039.13
2022-12-28T11:59:38.385Z,101030.50
2022-12-28T12:02:08.244Z,101027.44
2022-12-28T12:04:46.203Z,101025.63
2022-12-28T12:07:30.695Z,101023.56
2022-12-28T12:10:30.936Z,101011.66
2022-12-28T12:12:58.844Z,101016.06
2022-12-28T12:15:37.857Z,101014.09
2022-12-28T12:18:18.815Z,101017.66
2022-12-28T12:21:11.617Z,101016.66
2022-12-28T12:24:04.340Z,101012.50
2022-12-28T12:26:58.811Z,101003.97
2022-12-28T12:30:00.717Z,100989.84
2022-12-28T12:32:58.839Z,100979.97
2022-12-28T12:35:31.179Z,100975.66
2022-12-28T12:39:17.970Z,100977.31
2022-12-28T12:42:56.150Z,100962.81
2022-12-28T12:45:55.903Z,100957.69
2022-12-28T12:48:52.992Z,100950.50
2022-12-28T12:51:43.491Z,100962.53
2022-12-28T12:55:06.259Z,100964.31
2022-12-28T12:58:03.148Z,100952.66
2022-12-28T13:01:28.320Z,100947.81
2022-12-28T13:04:07.510Z,100943.38
2022-12-28T13:06:39.333Z,100945.59
2022-12-28T13:09:09.789Z,100940.44
2022-12-28T13:11:38.672Z,100932.91
2022-12-28T13:14:06.748Z,100927.78
2022-12-28T13:16:34.089Z,100930.75
2022-12-28T13:19:07.331Z,100922.59
2022-12-28T13:21:46.117Z,100938.28
2022-12-28T13:24:28.241Z,100929.47
2022-12-28T13:26:58.765Z,100930.34
2022-12-28T13:29:39.118Z,100928.88
2022-12-28T13:32:06.271Z,100926.88
2022-12-28T13:34:38.528Z,100926.88
2022-12-28T13:37:17.374Z,100924.69
2022-12-28T13:39:44.889Z,100913.84
2022-12-28T13:42:18.303Z,100908.56
2022-12-28T13:45:09.063Z,100900.09
2022-12-28T13:47:49.650Z,100904.16
2022-12-28T13:50:32.756Z,100900.53
2022-12-28T13:53:05.152Z,100897.09
2022-12-28T13:55:50.135Z,100891.63
2022-12-28T13:58:30.408Z,100895.16
2022-12-28T14:01:01.410Z,100899.53
2022-12-28T14:03:33.356Z,100900.16
2022-12-28T14:06:06.347Z,100892.91
2022-12-28T14:08:37.793Z,100900.66
2022-12-28T14:11:06.538Z,100908.28
2022-12-28T14:13:36.035Z,100913.06
2022-12-28T14:16:05.473Z,100908.97
2022-12-28T14:18:34.599Z,100909.41
2022-12-28T14:21:03.916Z,100911.50
2022-12-28T14:23:35.600Z,100917.63
2022-12-28T14:26:19.302Z,100918.31
2022-12-28T14:28:54.555Z,100916.50
2022-12-28T14:31:32.076Z,100923.66
2022-12-28T14:34:04.853Z,100915.84
2022-12-28T14:36:46.406Z,100915.38
2022-12-28T14:39:45.269Z,100916.84
2022-12-28T14:42:26.159Z,100918.34
2022-12-28T14:44:56.516Z,100923.09
2022-12-28T14:47:45.233Z,100921.94
2022-12-28T14:50:31.537Z,100916.03
2022-12-28T14:53:20.150Z,100914.69
2022-12-28T14:55:53.096Z,100913.78
2022-12-28T14:58:30.960Z,100914.59
2022-12-28T15:01:03.096Z,100913.78
2022-12-28T15:03:30.847Z,100922.88
2022-12-28T15:06:00.011Z,100920.13
2022-12-28T15:08:27.722Z,100921.81
2022-12-28T15:11:00.242Z,100915.81
2022-12-28T15:13:27.716Z,100916.50
2022-12-28T15:16:01.552Z,100924.53
2022-12-28T15:18:30.752Z,100918.31
2022-12-28T15:21:03.232Z,100921.94
2022-12-28T15:23:30.449Z,100918.53
2022-12-28T15:25:57.664Z,100906.94
2022-12-28T15:28:25.713Z,100910.13
2022-12-28T15:30:52.929Z,100909.66
2022-12-28T15:33:20.179Z,100912.78
2022-12-28T15:35:47.406Z,100916.56
2022-12-28T15:38:14.549Z,100910.06
2022-12-28T15:40:41.847Z,100914.16
2022-12-28T15:43:09.389Z,100910.53
2022-12-28T15:45:36.693Z,100914.41
2022-12-28T15:48:05.026Z,100917.22
2022-12-28T15:50:32.278Z,100920.69
2022-12-28T15:53:00.457Z,100922.03
2022-12-28T15:55:27.716Z,100926.75
2022-12-28T15:57:55.613Z,100913.75
2022-12-28T16:00:22.935Z,100923.88
2022-12-28T16:02:50.299Z,100920.69
2022-12-28T16:05:17.733Z,100916.41
2022-12-28T16:07:45.000Z,100917.06
2022-12-28T16:10:12.259Z,100913.69
2022-12-28T16:12:39.741Z,100915.59
2022-12-28T16:15:08.676Z,100912.53
2022-12-28T16:17:43.322Z,100912.97
2022-12-28T16:20:17.346Z,100902.97
2022-12-28T16:22:44.588Z,100905.69
2022-12-28T16:25:11.995Z,100896.66
2022-12-28T16:27:39.312Z,100894.69
2022-12-28T16:30:07.545Z,100899.53
2022-12-28T16:32:34.812Z,100915.16
2022-12-28T16:35:02.042Z,100911.31
2022-12-28T16:37:29.340Z,100909.47
2022-12-28T16:39:56.552Z,100906.09
2022-12-28T16:42:23.834Z,100899.84
2022-12-28T16:44:51.293Z,100900.53
2022-12-28T16:47:18.515Z,100897.81
2022-12-28T16:49:45.773Z,100903.13
2022-12-28T16:52:13.025Z,100900.78
2022-12-28T16:54:40.173Z,100895.44
2022-12-28T16:57:07.471Z,100895.22
2022-12-28T16:59:34.701Z,100902.78
2022-12-28T17:02:02.305Z,100909.00
2022-12-28T17:04:29.763Z,100892.13
2022-12-28T17:06:57.160Z,100903.06
2022-12-28T17:09:24.367Z,100904.66
2022-12-28T17:11:51.852Z,100901.00
2022-12-28T17:17:07.796Z,100908.03
2022-12-28T17:19:35.718Z,100909.06
2022-12-28T17:22:04.785Z,100901.00
2022-12-28T17:24:31.984Z,100907.53
2022-12-28T17:27:03.638Z,100907.53
2022-12-28T17:29:34.640Z,100906.09
2022-12-28T17:32:01.899Z,100913.47
2022-12-28T17:34:29.097Z,100913.59
2022-12-28T17:36:56.314Z,100907.25
2022-12-28T17:39:23.500Z,100909.63
2022-12-28T17:41:50.786Z,100905.97
2022-12-28T17:44:18.033Z,100917.06
2022-12-28T17:46:45.141Z,100916.38
2022-12-28T17:49:15.843Z,100911.91
2022-12-28T17:51:44.447Z,100912.94
2022-12-28T17:54:14.767Z,100919.72
2022-12-28T17:56:43.337Z,100909.88
2022-12-28T17:59:16.315Z,100911.44
2022-12-28T18:01:43.632Z,100910.50
2022-12-28T18:04:12.121Z,100909.50
2022-12-28T18:06:39.717Z,100907.78
2022-12-28T18:09:06.919Z,100902.59
2022-12-28T18:11:34.207Z,100902.59
2022-12-28T18:14:01.389Z,100900.78
2022-12-28T18:16:28.690Z,100901.56
2022-12-28T18:18:55.914Z,100898.84
2022-12-28T18:21:23.198Z,100898.72
2022-12-28T18:23:52.609Z,100896.25
2022-12-28T18:26:26.593Z,100896.38
2022-12-28T18:28:57.480Z,100904.19
2022-12-28T18:31:26.718Z,100898.72
2022-12-28T18:33:54.008Z,100904.56
2022-12-28T18:36:21.318Z,100903.69
2022-12-28T18:38:49.242Z,100908.66
2022-12-28T18:41:20.925Z,100901.59
2022-12-28T18:43:51.269Z,100904.88
2022-12-28T18:46:19.095Z,100907.59
2022-12-28T18:48:46.408Z,100911.25
2022-12-28T18:51:18.367Z,100910.44
2022-12-28T18:53:46.661Z,100908.91
2022-12-28T18:56:18.882Z,100913.31
2022-12-28T18:58:55.579Z,100917.06
2022-12-28T19:04:16.472Z,100907.06
2022-12-28T19:06:44.340Z,100906.81
2022-12-28T19:09:12.399Z,100916.72
2022-12-28T19:11:40.555Z,100908.03
2022-12-28T19:14:12.334Z,100916.59
2022-12-28T19:16:40.600Z,100905.06
2022-12-28T19:19:08.071Z,100917.28
2022-12-28T19:21:41.855Z,100907.53
2022-12-28T19:24:18.803Z,100910.78
2022-12-28T19:26:47.211Z,100910.78
2022-12-28T19:29:16.507Z,100900.13
2022-12-28T19:31:44.231Z,100911.47
2022-12-28T19:34:11.647Z,100914.19
2022-12-28T19:36:38.825Z,100918.34
2022-12-28T19:39:06.260Z,100910.28
2022-12-28T19:41:33.562Z,100916.53
2022-12-28T19:44:01.488Z,100913.03
2022-12-28T19:46:32.823Z,100919.13
2022-12-28T19:49:02.987Z,100920.19
2022-12-28T19:51:32.929Z,100906.50
2022-12-28T19:54:01.930Z,100911.72
2022-12-28T19:56:29.391Z,100906.50
2022-12-28T19:59:04.922Z,100902.22
2022-12-28T20:01:35.170Z,100916.00
2022-12-28T20:04:08.809Z,100911.03
2022-12-28T20:06:40.925Z,100907.44
2022-12-28T20:09:08.116Z,100893.25
2022-12-28T20:11:38.164Z,100907.94
2022-12-28T20:14:06.214Z,100904.22
2022-12-28T20:16:36.096Z,100906.44
2022-12-28T20:19:06.921Z,100896.03
2022-12-28T20:21:36.833Z,100898.75
2022-12-28T20:24:05.814Z,100902.91
2022-12-28T20:26:33.355Z,100898.25
2022-12-28T20:29:02.823Z,100893.69
2022-12-28T20:31:30.965Z,100905.16
2022-12-28T20:33:58.512Z,100904.22
2022-12-28T20:36:28.699Z,100895.00
2022-12-28T20:38:56.702Z,100897.84
2022-12-28T20:41:48.541Z,100888.75
2022-12-28T20:44:26.753Z,100883.56
2022-12-28T20:46:56.275Z,100887.19
2022-12-28T20:49:26.814Z,100886.66
2022-12-28T20:51:54.880Z,100880.69
2022-12-28T20:54:22.569Z,100883.03
2022-12-28T20:56:54.667Z,100887.19
2022-12-28T20:59:24.740Z,100889.25
2022-12-28T21:01:52.279Z,100879.09
2022-12-28T21:04:19.710Z,100885.56
2022-12-28T21:06:47.007Z,100888.97
2022-12-28T21:09:14.155Z,100875.97
2022-12-28T21:11:42.331Z,100866.88
2022-12-28T21:14:09.487Z,100863.78
2022-12-28T21:16:37.016Z,100861.19
2022-12-28T21:19:04.349Z,100862.22
2022-12-28T21:21:31.582Z,100847.50
2022-12-28T21:23:58.936Z,100840.38
2022-12-28T21:26:26.162Z,100845.34
2022-12-28T21:28:53.400Z,100856.78
2022-12-28T21:31:20.623Z,100860.28
2022-12-28T21:33:47.872Z,100859.38
2022-12-28T21:36:19.062Z,100857.53
2022-12-28T21:38:49.860Z,100860.94
2022-12-28T21:41:40.079Z,100852.09
2022-12-28T21:44:11.548Z,100859.91
2022-12-28T21:46:39.169Z,100844.66
2022-12-28T21:49:07.132Z,100844.31
2022-12-28T21:51:35.398Z,100839.91
2022-12-28T21:54:12.156Z,100847.56
2022-12-28T21:56:41.873Z,100842.38
2022-12-28T21:59:11.997Z,100837.19
2022-12-28T22:01:59.992Z,100833.91
2022-12-28T22:04:47.269Z,100826.66
2022-12-28T22:07:18.084Z,100831.25
2022-12-28T22:10:04.299Z,100838.25
2022-12-28T22:12:34.318Z,100839.16
2022-12-28T22:15:37.495Z,100853.19
2022-12-28T22:18:29.998Z,100846.25
2022-12-28T22:21:03.101Z,100846.63
2022-12-28T22:23:34.544Z,100847.63
2022-12-28T22:26:03.271Z,100854.66
2022-12-28T22:28:30.671Z,100848.81
2022-12-28T22:30:57.859Z,100847.88
2022-12-28T22:33:25.076Z,100839.06
2022-12-28T22:35:52.229Z,100844.16
2022-12-28T22:38:19.479Z,100842.44
2022-12-28T22:40:56.749Z,100840.63
2022-12-28T22:43:23.964Z,100841.31
2022-12-28T22:46:07.716Z,100840.38
2022-12-28T22:48:35.867Z,100841.44
2022-12-28T22:51:11.669Z,100839.84
2022-12-28T22:53:40.082Z,100846.75
2022-12-28T22:56:12.578Z,100840.63
2022-12-28T22:58:39.788Z,100836.22
2022-12-28T23:01:15.199Z,100835.44
2022-12-28T23:03:45.611Z,100830.22
2022-12-28T23:06:18.421Z,100822.66
2022-12-28T23:08:46.809Z,100821.75
2022-12-28T23:11:36.524Z,100821.88
2022-12-28T23:14:33.039Z,100815.31
2022-12-28T23:17:02.182Z,100815.69
2022-12-28T23:19:48.900Z,100814.81
2022-12-28T23:22:45.850Z,100813.22
2022-12-28T23:25:39.362Z,100809.44
2022-12-28T23:28:12.608Z,100805.13
2022-12-28T23:30:46.345Z,100805.03
2022-12-28T23:33:15.240Z,100810.22
2022-12-28T23:35:42.569Z,100817.09
2022-12-28T23:38:10.795Z,100816.19
2022-12-28T23:40:41.044Z,100811.91
2022-12-28T23:43:08.632Z,100809.19
2022-12-28T23:45:36.564Z,100802.69
2022-12-28T23:48:05.039Z,100807.91
2022-12-28T23:50:32.496Z,100801.94
2022-12-28T23:52:59.785Z,100796.97
2022-12-28T23:55:27.063Z,100807.38
2022-12-28T23:57:54.188Z,100808.25
